sensor_id;sensor_type;location;lat;lon;timestamp;temperature;humidity
52669;DHT22;59898;52.786;6.892;2022-07-05T00:01:37;17.50;99.90
52669;DHT22;59898;52.786;6.892;2022-07-05T00:04:57;17.50;99.90
52669;DHT22;59898;52.786;6.892;2022-07-05T00:08:18;17.50;99.90
52669;DHT22;59898;52.786;6.892;2022-07-05T00:11:39;17.50;99.90
52669;DHT22;59898;52.786;6.892;2022-07-05T00:15:00;17.50;99.90
52669;DHT22;59898;52.786;6.892;2022-07-05T00:18:21;17.50;99.90
52669;DHT22;59898;52.786;6.892;2022-07-05T00:21:42;17.50;99.90
52669;DHT22;59898;52.786;6.892;2022-07-05T00:25:03;17.40;99.90
52669;DHT22;59898;52.786;6.892;2022-07-05T00:28:24;17.40;99.90
52669;DHT22;59898;52.786;6.892;2022-07-05T00:31:44;17.20;99.90
52669;DHT22;59898;52.786;6.892;2022-07-05T00:35:06;16.80;99.90
52669;DHT22;59898;52.786;6.892;2022-07-05T00:38:27;17.30;99.90
52669;DHT22;59898;52.786;6.892;2022-07-05T00:41:48;17.30;99.90
52669;DHT22;59898;52.786;6.892;2022-07-05T00:45:09;17.20;99.90
52669;DHT22;59898;52.786;6.892;2022-07-05T00:48:30;17.30;99.90
52669;DHT22;59898;52.786;6.892;2022-07-05T00:51:50;17.30;99.90
52669;DHT22;59898;52.786;6.892;2022-07-05T00:55:11;17.30;99.90
52669;DHT22;59898;52.786;6.892;2022-07-05T00:58:32;17.30;99.90
52669;DHT22;59898;52.786;6.892;2022-07-05T01:01:53;17.00;99.90
52669;DHT22;59898;52.786;6.892;2022-07-05T01:05:14;17.70;99.90
52669;DHT22;59898;52.786;6.892;2022-07-05T01:08:38;17.10;99.90
52669;DHT22;59898;52.786;6.892;2022-07-05T01:11:59;16.90;99.90
52669;DHT22;59898;52.786;6.892;2022-07-05T01:15:23;16.90;99.90
52669;DHT22;59898;52.786;6.892;2022-07-05T01:18:45;16.90;99.90
52669;DHT22;59898;52.786;6.892;2022-07-05T01:22:15;17.10;99.90
52669;DHT22;59898;52.786;6.892;2022-07-05T01:25:37;16.50;99.90
52669;DHT22;59898;52.786;6.892;2022-07-05T01:29:01;16.50;99.90
52669;DHT22;59898;52.786;6.892;2022-07-05T01:32:22;16.40;99.90
52669;DHT22;59898;52.786;6.892;2022-07-05T01:35:43;16.40;99.90
52669;DHT22;59898;52.786;6.892;2022-07-05T01:43:43;16.10;99.90
52669;DHT22;59898;52.786;6.892;2022-07-05T01:47:06;16.10;99.90
52669;DHT22;59898;52.786;6.892;2022-07-05T01:50:27;16.00;99.90
52669;DHT22;59898;52.786;6.892;2022-07-05T01:53:52;15.80;99.90
52669;DHT22;59898;52.786;6.892;2022-07-05T01:57:18;16.70;99.90
52669;DHT22;59898;52.786;6.892;2022-07-05T02:00:48;15.90;99.90
52669;DHT22;59898;52.786;6.892;2022-07-05T02:04:10;15.70;99.90
52669;DHT22;59898;52.786;6.892;2022-07-05T02:07:31;15.70;99.90
52669;DHT22;59898;52.786;6.892;2022-07-05T02:10:52;15.80;99.90
52669;DHT22;59898;52.786;6.892;2022-07-05T02:14:12;15.90;99.90
52669;DHT22;59898;52.786;6.892;2022-07-05T02:17:33;16.20;99.90
52669;DHT22;59898;52.786;6.892;2022-07-05T02:20:54;16.30;99.90
52669;DHT22;59898;52.786;6.892;2022-07-05T02:24:15;16.40;99.90
52669;DHT22;59898;52.786;6.892;2022-07-05T02:27:35;16.50;99.90
52669;DHT22;59898;52.786;6.892;2022-07-05T02:30:56;16.60;99.90
52669;DHT22;59898;52.786;6.892;2022-07-05T02:34:17;16.20;99.90
52669;DHT22;59898;52.786;6.892;2022-07-05T02:37:38;16.80;99.90
52669;DHT22;59898;52.786;6.892;2022-07-05T02:41:06;17.00;99.90
52669;DHT22;59898;52.786;6.892;2022-07-05T02:44:27;17.20;99.90
52669;DHT22;59898;52.786;6.892;2022-07-05T02:47:51;16.90;99.90
52669;DHT22;59898;52.786;6.892;2022-07-05T02:51:12;16.70;99.90
52669;DHT22;59898;52.786;6.892;2022-07-05T02:54:33;16.50;99.90
52669;DHT22;59898;52.786;6.892;2022-07-05T02:57:54;16.30;99.90
52669;DHT22;59898;52.786;6.892;2022-07-05T03:01:15;16.10;99.90
52669;DHT22;59898;52.786;6.892;2022-07-05T03:04:35;16.00;99.90
52669;DHT22;59898;52.786;6.892;2022-07-05T03:07:56;15.50;99.90
52669;DHT22;59898;52.786;6.892;2022-07-05T03:11:17;15.70;99.90
52669;DHT22;59898;52.786;6.892;2022-07-05T03:14:40;15.60;99.90
52669;DHT22;59898;52.786;6.892;2022-07-05T03:18:01;15.40;99.90
52669;DHT22;59898;52.786;6.892;2022-07-05T03:21:22;15.50;99.90
52669;DHT22;59898;52.786;6.892;2022-07-05T03:24:43;15.40;99.90
52669;DHT22;59898;52.786;6.892;2022-07-05T03:28:09;15.20;99.90
52669;DHT22;59898;52.786;6.892;2022-07-05T03:31:30;15.10;99.90
52669;DHT22;59898;52.786;6.892;2022-07-05T03:34:50;15.00;99.90
52669;DHT22;59898;52.786;6.892;2022-07-05T03:38:14;15.20;99.90
52669;DHT22;59898;52.786;6.892;2022-07-05T03:42:09;15.10;99.90
52669;DHT22;59898;52.786;6.892;2022-07-05T03:50:07;15.20;99.90
52669;DHT22;59898;52.786;6.892;2022-07-05T03:53:27;15.10;99.90
52669;DHT22;59898;52.786;6.892;2022-07-05T03:57:02;15.00;99.90
52669;DHT22;59898;52.786;6.892;2022-07-05T04:00:23;15.20;99.90
52669;DHT22;59898;52.786;6.892;2022-07-05T04:03:43;16.30;99.90
52669;DHT22;59898;52.786;6.892;2022-07-05T04:07:04;15.20;99.90
52669;DHT22;59898;52.786;6.892;2022-07-05T04:10:28;15.20;99.90
52669;DHT22;59898;52.786;6.892;2022-07-05T04:13:50;14.90;99.90
52669;DHT22;59898;52.786;6.892;2022-07-05T04:17:12;15.20;99.90
52669;DHT22;59898;52.786;6.892;2022-07-05T04:20:33;15.20;99.90
52669;DHT22;59898;52.786;6.892;2022-07-05T04:23:54;15.30;99.90
52669;DHT22;59898;52.786;6.892;2022-07-05T04:27:15;15.30;99.90
52669;DHT22;59898;52.786;6.892;2022-07-05T04:30:38;15.30;99.90
52669;DHT22;59898;52.786;6.892;2022-07-05T04:34:02;15.30;99.90
52669;DHT22;59898;52.786;6.892;2022-07-05T04:37:23;15.30;99.90
52669;DHT22;59898;52.786;6.892;2022-07-05T04:40:44;15.20;99.90
52669;DHT22;59898;52.786;6.892;2022-07-05T04:48:44;15.30;99.90
52669;DHT22;59898;52.786;6.892;2022-07-05T04:52:05;15.40;99.90
52669;DHT22;59898;52.786;6.892;2022-07-05T04:55:25;15.30;99.90
52669;DHT22;59898;52.786;6.892;2022-07-05T04:58:46;15.30;99.90
52669;DHT22;59898;52.786;6.892;2022-07-05T05:02:07;15.40;99.90
52669;DHT22;59898;52.786;6.892;2022-07-05T05:05:28;15.50;99.90
52669;DHT22;59898;52.786;6.892;2022-07-05T05:08:48;15.40;99.90
52669;DHT22;59898;52.786;6.892;2022-07-05T05:12:09;15.40;99.90
52669;DHT22;59898;52.786;6.892;2022-07-05T05:15:30;15.50;99.90
52669;DHT22;59898;52.786;6.892;2022-07-05T05:18:53;15.50;99.90
52669;DHT22;59898;52.786;6.892;2022-07-05T05:22:14;15.60;99.90
52669;DHT22;59898;52.786;6.892;2022-07-05T05:25:35;15.60;99.90
52669;DHT22;59898;52.786;6.892;2022-07-05T05:28:56;15.90;99.90
52669;DHT22;59898;52.786;6.892;2022-07-05T05:32:17;15.90;99.90
52669;DHT22;59898;52.786;6.892;2022-07-05T05:35:38;15.90;99.90
52669;DHT22;59898;52.786;6.892;2022-07-05T05:38:58;16.00;99.90
52669;DHT22;59898;52.786;6.892;2022-07-05T05:42:19;15.70;99.90
52669;DHT22;59898;52.786;6.892;2022-07-05T05:45:40;17.70;99.90
52669;DHT22;59898;52.786;6.892;2022-07-05T05:49:01;16.00;99.90
52669;DHT22;59898;52.786;6.892;2022-07-05T05:52:21;16.10;99.90
52669;DHT22;59898;52.786;6.892;2022-07-05T05:55:44;16.30;99.90
52669;DHT22;59898;52.786;6.892;2022-07-05T05:59:05;16.30;99.90
52669;DHT22;59898;52.786;6.892;2022-07-05T06:02:27;16.30;99.90
52669;DHT22;59898;52.786;6.892;2022-07-05T06:05:47;16.10;99.90
52669;DHT22;59898;52.786;6.892;2022-07-05T06:09:08;16.70;99.90
52669;DHT22;59898;52.786;6.892;2022-07-05T06:12:29;16.70;99.90
52669;DHT22;59898;52.786;6.892;2022-07-05T06:16:10;16.90;99.90
52669;DHT22;59898;52.786;6.892;2022-07-05T06:19:31;17.10;99.90
52669;DHT22;59898;52.786;6.892;2022-07-05T06:22:52;17.30;99.90
52669;DHT22;59898;52.786;6.892;2022-07-05T06:26:13;17.60;99.90
52669;DHT22;59898;52.786;6.892;2022-07-05T06:29:34;17.70;99.90
52669;DHT22;59898;52.786;6.892;2022-07-05T06:32:55;18.00;99.90
52669;DHT22;59898;52.786;6.892;2022-07-05T06:36:15;18.20;99.90
52669;DHT22;59898;52.786;6.892;2022-07-05T06:39:36;18.30;99.90
52669;DHT22;59898;52.786;6.892;2022-07-05T06:43:00;18.30;99.90
52669;DHT22;59898;52.786;6.892;2022-07-05T06:46:21;18.50;99.90
52669;DHT22;59898;52.786;6.892;2022-07-05T06:49:48;18.60;99.90
52669;DHT22;59898;52.786;6.892;2022-07-05T06:53:11;18.70;99.90
52669;DHT22;59898;52.786;6.892;2022-07-05T06:56:35;18.60;99.90
52669;DHT22;59898;52.786;6.892;2022-07-05T06:59:56;18.70;99.90
52669;DHT22;59898;52.786;6.892;2022-07-05T07:03:17;18.80;99.90
52669;DHT22;59898;52.786;6.892;2022-07-05T07:06:38;18.90;99.90
52669;DHT22;59898;52.786;6.892;2022-07-05T07:10:00;18.90;99.90
52669;DHT22;59898;52.786;6.892;2022-07-05T07:13:21;19.10;99.90
52669;DHT22;59898;52.786;6.892;2022-07-05T07:16:41;19.10;99.90
52669;DHT22;59898;52.786;6.892;2022-07-05T07:20:06;19.40;99.90
52669;DHT22;59898;52.786;6.892;2022-07-05T07:23:27;19.40;99.90
52669;DHT22;59898;52.786;6.892;2022-07-05T07:26:47;19.60;99.90
52669;DHT22;59898;52.786;6.892;2022-07-05T07:30:28;19.70;99.90
52669;DHT22;59898;52.786;6.892;2022-07-05T07:33:51;19.80;99.90
52669;DHT22;59898;52.786;6.892;2022-07-05T07:37:12;20.10;99.90
52669;DHT22;59898;52.786;6.892;2022-07-05T07:40:34;20.00;99.90
52669;DHT22;59898;52.786;6.892;2022-07-05T07:43:55;20.10;99.90
52669;DHT22;59898;52.786;6.892;2022-07-05T07:47:19;20.30;99.90
52669;DHT22;59898;52.786;6.892;2022-07-05T07:50:40;20.10;99.90
52669;DHT22;59898;52.786;6.892;2022-07-05T07:54:01;20.40;99.90
52669;DHT22;59898;52.786;6.892;2022-07-05T07:57:22;20.40;99.90
52669;DHT22;59898;52.786;6.892;2022-07-05T08:00:43;20.50;99.90
52669;DHT22;59898;52.786;6.892;2022-07-05T08:04:04;20.50;99.90
52669;DHT22;59898;52.786;6.892;2022-07-05T08:07:25;20.50;99.90
52669;DHT22;59898;52.786;6.892;2022-07-05T08:10:46;20.30;99.90
52669;DHT22;59898;52.786;6.892;2022-07-05T08:14:06;20.30;99.90
52669;DHT22;59898;52.786;6.892;2022-07-05T08:17:27;20.10;99.90
52669;DHT22;59898;52.786;6.892;2022-07-05T08:20:48;20.10;99.90
52669;DHT22;59898;52.786;6.892;2022-07-05T08:24:28;20.10;99.90
52669;DHT22;59898;52.786;6.892;2022-07-05T08:27:49;20.30;99.90
52669;DHT22;59898;52.786;6.892;2022-07-05T08:31:09;20.30;99.90
52669;DHT22;59898;52.786;6.892;2022-07-05T08:34:30;20.50;99.90
52669;DHT22;59898;52.786;6.892;2022-07-05T08:37:51;20.50;99.90
52669;DHT22;59898;52.786;6.892;2022-07-05T08:41:12;20.40;99.90
52669;DHT22;59898;52.786;6.892;2022-07-05T08:44:34;20.40;99.90
52669;DHT22;59898;52.786;6.892;2022-07-05T08:48:00;20.50;99.90
52669;DHT22;59898;52.786;6.892;2022-07-05T08:51:21;20.60;99.90
52669;DHT22;59898;52.786;6.892;2022-07-05T08:54:42;20.80;99.90
52669;DHT22;59898;52.786;6.892;2022-07-05T08:58:03;20.80;99.90
52669;DHT22;59898;52.786;6.892;2022-07-05T09:01:25;20.50;99.90
52669;DHT22;59898;52.786;6.892;2022-07-05T09:04:46;20.60;99.90
52669;DHT22;59898;52.786;6.892;2022-07-05T09:08:09;20.60;99.90
52669;DHT22;59898;52.786;6.892;2022-07-05T09:11:36;20.70;99.90
52669;DHT22;59898;52.786;6.892;2022-07-05T09:14:57;20.90;99.90
52669;DHT22;59898;52.786;6.892;2022-07-05T09:18:39;21.10;99.90
52669;DHT22;59898;52.786;6.892;2022-07-05T09:22:04;21.20;99.90
52669;DHT22;59898;52.786;6.892;2022-07-05T09:25:31;21.20;99.90
52669;DHT22;59898;52.786;6.892;2022-07-05T09:28:55;20.90;99.90
52669;DHT22;59898;52.786;6.892;2022-07-05T09:32:23;20.80;99.90
52669;DHT22;59898;52.786;6.892;2022-07-05T09:35:57;20.70;99.90
52669;DHT22;59898;52.786;6.892;2022-07-05T09:42:50;21.10;99.90
52669;DHT22;59898;52.786;6.892;2022-07-05T09:46:11;21.40;99.90
52669;DHT22;59898;52.786;6.892;2022-07-05T09:49:33;21.60;99.90
52669;DHT22;59898;52.786;6.892;2022-07-05T09:52:56;21.70;99.90
52669;DHT22;59898;52.786;6.892;2022-07-05T09:56:17;22.50;99.90
52669;DHT22;59898;52.786;6.892;2022-07-05T09:59:38;21.60;99.90
52669;DHT22;59898;52.786;6.892;2022-07-05T10:02:59;21.60;99.90
52669;DHT22;59898;52.786;6.892;2022-07-05T10:06:23;21.50;99.10
52669;DHT22;59898;52.786;6.892;2022-07-05T10:09:44;21.30;99.70
52669;DHT22;59898;52.786;6.892;2022-07-05T10:13:05;21.40;99.90
52669;DHT22;59898;52.786;6.892;2022-07-05T10:16:28;21.60;99.90
52669;DHT22;59898;52.786;6.892;2022-07-05T10:19:49;21.40;99.90
52669;DHT22;59898;52.786;6.892;2022-07-05T10:23:13;21.30;99.80
52669;DHT22;59898;52.786;6.892;2022-07-05T10:26:35;21.10;99.70
52669;DHT22;59898;52.786;6.892;2022-07-05T10:29:58;21.30;99.60
52669;DHT22;59898;52.786;6.892;2022-07-05T10:33:20;21.40;99.60
52669;DHT22;59898;52.786;6.892;2022-07-05T10:36:47;21.60;99.40
52669;DHT22;59898;52.786;6.892;2022-07-05T10:40:10;21.90;98.80
52669;DHT22;59898;52.786;6.892;2022-07-05T10:43:31;22.00;99.10
52669;DHT22;59898;52.786;6.892;2022-07-05T10:46:52;21.80;99.10
52669;DHT22;59898;52.786;6.892;2022-07-05T10:50:42;21.60;99.50
52669;DHT22;59898;52.786;6.892;2022-07-05T10:54:03;21.50;99.90
52669;DHT22;59898;52.786;6.892;2022-07-05T10:57:24;21.30;99.90
52669;DHT22;59898;52.786;6.892;2022-07-05T11:01:30;21.30;99.90
52669;DHT22;59898;52.786;6.892;2022-07-05T11:04:29;21.50;99.90
52669;DHT22;59898;52.786;6.892;2022-07-05T11:07:58;21.50;99.90
52669;DHT22;59898;52.786;6.892;2022-07-05T11:11:24;21.40;99.90
52669;DHT22;59898;52.786;6.892;2022-07-05T11:14:46;21.30;99.90
52669;DHT22;59898;52.786;6.892;2022-07-05T11:18:16;21.20;99.90
52669;DHT22;59898;52.786;6.892;2022-07-05T11:21:59;21.30;99.90
52669;DHT22;59898;52.786;6.892;2022-07-05T11:25:23;21.60;99.90
52669;DHT22;59898;52.786;6.892;2022-07-05T11:28:47;21.70;99.90
52669;DHT22;59898;52.786;6.892;2022-07-05T11:35:51;21.60;99.60
52669;DHT22;59898;52.786;6.892;2022-07-05T11:39:15;21.50;99.90
52669;DHT22;59898;52.786;6.892;2022-07-05T11:42:45;21.40;99.90
52669;DHT22;59898;52.786;6.892;2022-07-05T11:46:06;21.30;99.90
52669;DHT22;59898;52.786;6.892;2022-07-05T11:49:27;21.40;99.90
52669;DHT22;59898;52.786;6.892;2022-07-05T11:52:49;21.60;99.90
52669;DHT22;59898;52.786;6.892;2022-07-05T11:56:12;21.90;99.90
52669;DHT22;59898;52.786;6.892;2022-07-05T11:59:33;21.90;99.90
52669;DHT22;59898;52.786;6.892;2022-07-05T12:02:54;22.30;99.90
52669;DHT22;59898;52.786;6.892;2022-07-05T12:06:15;22.60;99.90
52669;DHT22;59898;52.786;6.892;2022-07-05T12:09:36;22.80;99.50
52669;DHT22;59898;52.786;6.892;2022-07-05T12:13:15;22.50;98.80
52669;DHT22;59898;52.786;6.892;2022-07-05T12:16:36;22.60;99.10
52669;DHT22;59898;52.786;6.892;2022-07-05T12:19:57;22.60;99.10
52669;DHT22;59898;52.786;6.892;2022-07-05T12:23:26;22.60;99.10
52669;DHT22;59898;52.786;6.892;2022-07-05T12:26:48;22.50;98.30
52669;DHT22;59898;52.786;6.892;2022-07-05T12:30:11;22.40;98.90
52669;DHT22;59898;52.786;6.892;2022-07-05T12:33:32;22.20;99.00
52669;DHT22;59898;52.786;6.892;2022-07-05T12:36:53;22.40;99.20
52669;DHT22;59898;52.786;6.892;2022-07-05T12:40:13;22.30;99.00
52669;DHT22;59898;52.786;6.892;2022-07-05T12:43:52;22.30;98.80
52669;DHT22;59898;52.786;6.892;2022-07-05T12:47:12;22.70;98.50
52669;DHT22;59898;52.786;6.892;2022-07-05T12:50:50;22.80;97.80
52669;DHT22;59898;52.786;6.892;2022-07-05T12:54:22;22.80;96.90
52669;DHT22;59898;52.786;6.892;2022-07-05T12:58:01;23.10;97.30
52669;DHT22;59898;52.786;6.892;2022-07-05T13:01:23;23.40;96.50
52669;DHT22;59898;52.786;6.892;2022-07-05T13:04:53;23.50;96.20
52669;DHT22;59898;52.786;6.892;2022-07-05T13:08:27;23.50;95.90
52669;DHT22;59898;52.786;6.892;2022-07-05T13:11:48;23.60;95.30
52669;DHT22;59898;52.786;6.892;2022-07-05T13:15:09;23.70;95.50
52669;DHT22;59898;52.786;6.892;2022-07-05T13:18:30;23.60;95.30
52669;DHT22;59898;52.786;6.892;2022-07-05T13:21:52;23.60;95.40
52669;DHT22;59898;52.786;6.892;2022-07-05T13:25:13;23.40;94.90
52669;DHT22;59898;52.786;6.892;2022-07-05T13:28:34;23.20;95.00
52669;DHT22;59898;52.786;6.892;2022-07-05T13:31:55;23.20;94.90
52669;DHT22;59898;52.786;6.892;2022-07-05T13:35:16;23.10;94.30
52669;DHT22;59898;52.786;6.892;2022-07-05T13:38:36;23.10;94.30
52669;DHT22;59898;52.786;6.892;2022-07-05T13:41:58;23.10;94.60
52669;DHT22;59898;52.786;6.892;2022-07-05T13:45:25;23.10;95.00
52669;DHT22;59898;52.786;6.892;2022-07-05T13:48:46;23.10;95.30
52669;DHT22;59898;52.786;6.892;2022-07-05T13:52:07;23.10;95.50
52669;DHT22;59898;52.786;6.892;2022-07-05T13:55:28;23.20;95.80
52669;DHT22;59898;52.786;6.892;2022-07-05T13:58:49;22.90;95.60
52669;DHT22;59898;52.786;6.892;2022-07-05T14:02:09;23.30;95.80
52669;DHT22;59898;52.786;6.892;2022-07-05T14:05:30;23.10;95.90
52669;DHT22;59898;52.786;6.892;2022-07-05T14:08:51;22.80;95.80
52669;DHT22;59898;52.786;6.892;2022-07-05T14:12:11;22.80;96.10
52669;DHT22;59898;52.786;6.892;2022-07-05T14:15:33;22.80;95.90
52669;DHT22;59898;52.786;6.892;2022-07-05T14:18:53;22.70;96.00
52669;DHT22;59898;52.786;6.892;2022-07-05T14:22:16;22.80;96.00
52669;DHT22;59898;52.786;6.892;2022-07-05T14:25:37;23.00;95.60
52669;DHT22;59898;52.786;6.892;2022-07-05T14:28:58;22.90;95.30
52669;DHT22;59898;52.786;6.892;2022-07-05T14:32:19;22.90;95.40
52669;DHT22;59898;52.786;6.892;2022-07-05T14:35:40;22.80;95.00
52669;DHT22;59898;52.786;6.892;2022-07-05T14:39:01;22.70;95.20
52669;DHT22;59898;52.786;6.892;2022-07-05T14:42:22;22.60;95.00
52669;DHT22;59898;52.786;6.892;2022-07-05T14:45:42;22.70;95.10
52669;DHT22;59898;52.786;6.892;2022-07-05T14:49:03;22.90;94.90
52669;DHT22;59898;52.786;6.892;2022-07-05T14:52:23;23.00;94.80
52669;DHT22;59898;52.786;6.892;2022-07-05T14:55:44;22.90;94.90
52669;DHT22;59898;52.786;6.892;2022-07-05T14:59:05;22.80;95.10
52669;DHT22;59898;52.786;6.892;2022-07-05T15:02:26;22.80;95.10
52669;DHT22;59898;52.786;6.892;2022-07-05T15:05:47;22.60;94.50
52669;DHT22;59898;52.786;6.892;2022-07-05T15:09:09;22.30;94.30
52669;DHT22;59898;52.786;6.892;2022-07-05T15:12:29;22.20;94.60
52669;DHT22;59898;52.786;6.892;2022-07-05T15:15:50;22.00;95.00
52669;DHT22;59898;52.786;6.892;2022-07-05T15:19:11;21.60;94.90
52669;DHT22;59898;52.786;6.892;2022-07-05T15:22:32;22.10;95.10
52669;DHT22;59898;52.786;6.892;2022-07-05T15:25:54;22.40;95.10
52669;DHT22;59898;52.786;6.892;2022-07-05T15:29:17;22.40;95.00
52669;DHT22;59898;52.786;6.892;2022-07-05T15:32:38;22.30;94.90
52669;DHT22;59898;52.786;6.892;2022-07-05T15:35:58;22.10;95.20
52669;DHT22;59898;52.786;6.892;2022-07-05T15:39:19;21.90;95.70
52669;DHT22;59898;52.786;6.892;2022-07-05T15:42:40;21.90;95.70
52669;DHT22;59898;52.786;6.892;2022-07-05T15:46:17;22.00;96.30
52669;DHT22;59898;52.786;6.892;2022-07-05T15:54:27;22.20;95.00
52669;DHT22;59898;52.786;6.892;2022-07-05T15:57:56;22.40;95.40
52669;DHT22;59898;52.786;6.892;2022-07-05T16:11:01;22.00;95.10
52669;DHT22;59898;52.786;6.892;2022-07-05T16:14:25;21.80;95.00
52669;DHT22;59898;52.786;6.892;2022-07-05T16:17:48;21.90;95.90
52669;DHT22;59898;52.786;6.892;2022-07-05T16:21:15;21.70;95.80
52669;DHT22;59898;52.786;6.892;2022-07-05T16:24:56;21.60;96.20
52669;DHT22;59898;52.786;6.892;2022-07-05T16:38:24;21.90;94.70
52669;DHT22;59898;52.786;6.892;2022-07-05T16:41:45;21.90;95.80
52669;DHT22;59898;52.786;6.892;2022-07-05T16:45:06;21.90;95.80
52669;DHT22;59898;52.786;6.892;2022-07-05T16:48:28;21.80;95.80
52669;DHT22;59898;52.786;6.892;2022-07-05T16:51:49;21.70;96.00
52669;DHT22;59898;52.786;6.892;2022-07-05T16:55:10;21.60;96.10
52669;DHT22;59898;52.786;6.892;2022-07-05T16:58:31;21.50;96.40
52669;DHT22;59898;52.786;6.892;2022-07-05T17:01:55;21.50;96.40
52669;DHT22;59898;52.786;6.892;2022-07-05T17:05:16;21.50;96.40
52669;DHT22;59898;52.786;6.892;2022-07-05T17:08:38;21.40;96.50
52669;DHT22;59898;52.786;6.892;2022-07-05T17:12:05;21.30;96.60
52669;DHT22;59898;52.786;6.892;2022-07-05T17:15:26;21.30;96.70
52669;DHT22;59898;52.786;6.892;2022-07-05T17:18:47;21.10;96.60
52669;DHT22;59898;52.786;6.892;2022-07-05T17:22:08;21.00;96.80
52669;DHT22;59898;52.786;6.892;2022-07-05T17:25:29;21.00;97.10
52669;DHT22;59898;52.786;6.892;2022-07-05T17:28:59;20.90;97.10
52669;DHT22;59898;52.786;6.892;2022-07-05T17:32:20;20.90;96.70
52669;DHT22;59898;52.786;6.892;2022-07-05T17:35:43;20.90;96.80
52669;DHT22;59898;52.786;6.892;2022-07-05T17:39:04;20.90;97.00
52669;DHT22;59898;52.786;6.892;2022-07-05T17:42:25;20.80;97.10
52669;DHT22;59898;52.786;6.892;2022-07-05T17:45:46;20.70;97.20
52669;DHT22;59898;52.786;6.892;2022-07-05T17:49:06;20.70;97.40
52669;DHT22;59898;52.786;6.892;2022-07-05T17:52:27;20.50;97.70
52669;DHT22;59898;52.786;6.892;2022-07-05T17:55:48;19.00;97.60
52669;DHT22;59898;52.786;6.892;2022-07-05T17:59:09;20.30;98.40
52669;DHT22;59898;52.786;6.892;2022-07-05T18:02:29;20.20;98.40
52669;DHT22;59898;52.786;6.892;2022-07-05T18:05:51;20.10;98.60
52669;DHT22;59898;52.786;6.892;2022-07-05T18:09:12;20.80;98.70
52669;DHT22;59898;52.786;6.892;2022-07-05T18:12:33;20.10;98.50
52669;DHT22;59898;52.786;6.892;2022-07-05T18:15:53;20.10;98.50
52669;DHT22;59898;52.786;6.892;2022-07-05T18:19:17;20.30;98.50
52669;DHT22;59898;52.786;6.892;2022-07-05T18:22:38;20.30;98.60
52669;DHT22;59898;52.786;6.892;2022-07-05T18:25:59;20.00;98.70
52669;DHT22;59898;52.786;6.892;2022-07-05T18:29:20;19.90;98.90
52669;DHT22;59898;52.786;6.892;2022-07-05T18:32:40;19.90;99.10
52669;DHT22;59898;52.786;6.892;2022-07-05T18:36:01;20.30;99.40
52669;DHT22;59898;52.786;6.892;2022-07-05T18:39:22;19.80;99.60
52669;DHT22;59898;52.786;6.892;2022-07-05T18:42:43;19.80;99.30
52669;DHT22;59898;52.786;6.892;2022-07-05T18:46:04;19.70;99.30
52669;DHT22;59898;52.786;6.892;2022-07-05T18:49:25;19.70;99.40
52669;DHT22;59898;52.786;6.892;2022-07-05T18:52:45;19.70;99.60
52669;DHT22;59898;52.786;6.892;2022-07-05T18:56:06;19.40;99.80
52669;DHT22;59898;52.786;6.892;2022-07-05T18:59:27;19.60;99.90
52669;DHT22;59898;52.786;6.892;2022-07-05T19:02:48;19.50;99.90
52669;DHT22;59898;52.786;6.892;2022-07-05T19:06:09;18.30;99.80
52669;DHT22;59898;52.786;6.892;2022-07-05T19:10:06;19.40;99.90
52669;DHT22;59898;52.786;6.892;2022-07-05T19:13:45;19.20;99.90
52669;DHT22;59898;52.786;6.892;2022-07-05T19:17:07;19.30;99.90
52669;DHT22;59898;52.786;6.892;2022-07-05T19:20:28;19.30;99.90
52669;DHT22;59898;52.786;6.892;2022-07-05T19:23:50;19.20;99.90
52669;DHT22;59898;52.786;6.892;2022-07-05T19:31:58;19.30;99.90
52669;DHT22;59898;52.786;6.892;2022-07-05T19:35:24;19.20;99.90
52669;DHT22;59898;52.786;6.892;2022-07-05T19:38:45;19.20;99.90
52669;DHT22;59898;52.786;6.892;2022-07-05T19:42:06;19.20;99.90
52669;DHT22;59898;52.786;6.892;2022-07-05T19:45:27;19.30;99.90
52669;DHT22;59898;52.786;6.892;2022-07-05T19:48:48;19.00;99.90
52669;DHT22;59898;52.786;6.892;2022-07-05T19:52:09;18.90;99.90
52669;DHT22;59898;52.786;6.892;2022-07-05T19:55:30;18.80;99.90
52669;DHT22;59898;52.786;6.892;2022-07-05T19:58:50;18.70;99.90
52669;DHT22;59898;52.786;6.892;2022-07-05T20:02:11;18.70;99.90
52669;DHT22;59898;52.786;6.892;2022-07-05T20:05:32;18.60;99.90
52669;DHT22;59898;52.786;6.892;2022-07-05T20:08:56;18.50;99.90
52669;DHT22;59898;52.786;6.892;2022-07-05T20:12:17;18.40;99.90
52669;DHT22;59898;52.786;6.892;2022-07-05T20:15:41;18.30;99.90
52669;DHT22;59898;52.786;6.892;2022-07-05T20:19:04;18.30;99.90
52669;DHT22;59898;52.786;6.892;2022-07-05T20:22:34;18.20;99.90
52669;DHT22;59898;52.786;6.892;2022-07-05T20:25:55;18.20;99.90
52669;DHT22;59898;52.786;6.892;2022-07-05T20:29:15;18.10;99.90
52669;DHT22;59898;52.786;6.892;2022-07-05T20:32:39;18.00;99.90
52669;DHT22;59898;52.786;6.892;2022-07-05T20:36:05;18.00;99.90
52669;DHT22;59898;52.786;6.892;2022-07-05T20:39:42;17.80;99.90
52669;DHT22;59898;52.786;6.892;2022-07-05T20:43:41;17.70;99.90
52669;DHT22;59898;52.786;6.892;2022-07-05T20:47:02;17.10;99.90
52669;DHT22;59898;52.786;6.892;2022-07-05T20:50:23;17.30;99.90
52669;DHT22;59898;52.786;6.892;2022-07-05T20:53:44;17.40;99.90
52669;DHT22;59898;52.786;6.892;2022-07-05T20:57:05;17.30;99.90
52669;DHT22;59898;52.786;6.892;2022-07-05T21:00:25;17.20;99.90
52669;DHT22;59898;52.786;6.892;2022-07-05T21:03:46;17.30;99.90
52669;DHT22;59898;52.786;6.892;2022-07-05T21:07:09;17.20;99.90
52669;DHT22;59898;52.786;6.892;2022-07-05T21:10:29;17.10;99.90
52669;DHT22;59898;52.786;6.892;2022-07-05T21:13:53;17.20;99.90
52669;DHT22;59898;52.786;6.892;2022-07-05T21:17:13;17.20;99.90
52669;DHT22;59898;52.786;6.892;2022-07-05T21:20:34;17.00;99.90
52669;DHT22;59898;52.786;6.892;2022-07-05T21:23:55;17.00;99.90
52669;DHT22;59898;52.786;6.892;2022-07-05T21:27:16;17.00;99.90
52669;DHT22;59898;52.786;6.892;2022-07-05T21:30:36;16.90;99.90
52669;DHT22;59898;52.786;6.892;2022-07-05T21:33:57;16.80;99.90
52669;DHT22;59898;52.786;6.892;2022-07-05T21:37:18;16.80;99.90
52669;DHT22;59898;52.786;6.892;2022-07-05T21:40:38;16.70;99.90
52669;DHT22;59898;52.786;6.892;2022-07-05T21:43:59;16.80;99.90
52669;DHT22;59898;52.786;6.892;2022-07-05T21:47:21;16.80;99.90
52669;DHT22;59898;52.786;6.892;2022-07-05T21:50:42;16.80;99.90
52669;DHT22;59898;52.786;6.892;2022-07-05T21:54:03;16.80;99.90
52669;DHT22;59898;52.786;6.892;2022-07-05T21:57:24;16.70;99.90
52669;DHT22;59898;52.786;6.892;2022-07-05T22:00:44;16.70;99.90
52669;DHT22;59898;52.786;6.892;2022-07-05T22:04:24;16.80;99.90
52669;DHT22;59898;52.786;6.892;2022-07-05T22:07:45;16.80;99.90
52669;DHT22;59898;52.786;6.892;2022-07-05T22:11:05;16.90;99.90